Time;durP1;ratioP1;P1;durP2;ratioP2;P2;SDS_P1;SDS_P2;PMS_P1;PMS_P2;Temp;Humidity;BMP_temperature;BMP_pressure;BME280_temperature;BME280_humidity;BME280_pressure;Samples;Min_cycle;Max_cycle;Signal;HPM_P1;HPM_P2
2021/09/01 00:02:02;;;;;;;0.10;0.10;;;13.60;99.90;;;;;;5034789;28;20026;-75
2021/09/01 00:04:28;;;;;;;0.10;0.10;;;13.70;99.90;;;;;;5033334;28;20025;-73
2021/09/01 00:06:53;;;;;;;0.10;0.10;;;13.80;99.90;;;;;;5034763;28;20030;-73
2021/09/01 00:09:19;;;;;;;0.00;0.00;;;13.90;99.90;;;;;;5034299;28;20025;-74
2021/09/01 00:11:45;;;;;;;0.00;0.00;;;13.90;99.90;;;;;;5033352;28;20053;-74
2021/09/01 00:14:12;;;;;;;0.10;0.10;;;14.00;99.90;;;;;;5033208;28;20450;-73
2021/09/01 00:16:38;;;;;;;0.10;0.10;;;13.90;99.90;;;;;;5034346;28;20025;-74
2021/09/01 00:19:06;;;;;;;0.00;0.00;;;13.80;99.90;;;;;;5034171;28;20042;-73
2021/09/01 00:21:33;;;;;;;0.00;0.00;;;13.70;99.90;;;;;;5033240;28;20554;-74
2021/09/01 00:23:59;;;;;;;0.10;0.10;;;13.60;99.90;;;;;;5033101;28;20504;-74
2021/09/01 00:26:26;;;;;;;0.32;0.32;;;13.40;99.90;;;;;;5032900;28;20026;-73
2021/09/01 00:28:52;;;;;;;0.10;0.10;;;13.20;99.90;;;;;;5034099;28;20087;-74
2021/09/01 00:31:18;;;;;;;0.10;0.10;;;13.10;99.90;;;;;;5016316;28;20053;-74
2021/09/01 00:33:45;;;;;;;0.00;0.00;;;13.10;99.90;;;;;;5034085;28;20017;-73
2021/09/01 00:36:11;;;;;;;0.10;0.10;;;13.20;99.90;;;;;;5033988;28;20036;-73
2021/09/01 00:38:37;;;;;;;0.20;0.20;;;13.20;99.90;;;;;;5033802;28;20025;-74
2021/09/01 00:41:03;;;;;;;0.00;0.00;;;13.20;99.90;;;;;;5034158;28;20021;-74
2021/09/01 00:43:29;;;;;;;0.57;0.57;;;13.20;99.90;;;;;;5033980;28;20048;-74
2021/09/01 00:45:55;;;;;;;0.10;0.10;;;13.30;99.90;;;;;;5033909;28;20053;-73
2021/09/01 00:48:23;;;;;;;0.10;0.10;;;13.20;99.90;;;;;;5032389;28;20025;-74
2021/09/01 00:50:55;;;;;;;0.00;0.00;;;13.20;99.90;;;;;;5016115;28;20565;-74
2021/09/01 00:53:28;;;;;;;0.10;0.10;;;13.10;99.90;;;;;;5033187;28;20076;-74
2021/09/01 00:55:56;;;;;;;0.03;0.03;;;13.20;99.90;;;;;;5032363;28;20482;-74
2021/09/01 00:58:22;;;;;;;0.77;0.77;;;13.30;99.90;;;;;;5033437;28;20021;-74
2021/09/01 01:03:25;;;;;;;0.08;0.08;;;13.20;99.90;;;;;;5033616;28;20027;-74
2021/09/01 01:05:50;;;;;;;0.00;0.00;;;13.20;99.90;;;;;;5033473;28;20394;-73
2021/09/01 01:08:16;;;;;;;0.00;0.00;;;13.20;99.90;;;;;;5033203;28;20025;-73
2021/09/01 01:10:42;;;;;;;0.20;0.20;;;13.30;99.90;;;;;;5033359;28;20026;-73
2021/09/01 01:13:09;;;;;;;0.22;0.22;;;13.40;99.90;;;;;;5032093;28;20030;-73
2021/09/01 01:15:41;;;;;;;0.03;0.03;;;13.40;99.90;;;;;;5031949;28;20025;-74
2021/09/01 01:18:09;;;;;;;0.00;0.00;;;13.40;99.90;;;;;;5033097;28;20087;-73
2021/09/01 01:20:35;;;;;;;0.00;0.00;;;13.50;99.90;;;;;;5031872;28;20033;-74
2021/09/01 01:23:01;;;;;;;0.10;0.10;;;13.50;99.90;;;;;;5033271;28;20064;-73
2021/09/01 01:25:32;;;;;;;0.10;0.10;;;13.40;99.90;;;;;;5033181;28;20025;-74
2021/09/01 01:27:58;;;;;;;0.00;0.00;;;13.40;99.90;;;;;;5032520;28;20094;-73
2021/09/01 01:30:23;;;;;;;0.25;0.17;;;13.40;99.90;;;;;;5033033;28;20109;-74
2021/09/01 01:32:52;;;;;;;0.10;0.10;;;13.60;99.90;;;;;;5033018;28;20024;-73
2021/09/01 01:35:29;;;;;;;0.03;0.03;;;13.50;99.90;;;;;;5032860;28;20021;-73
2021/09/01 01:37:56;;;;;;;0.00;0.00;;;13.30;99.90;;;;;;5031089;28;20064;-73
2021/09/01 01:40:22;;;;;;;0.00;0.00;;;13.20;99.90;;;;;;5031608;28;20487;-73
2021/09/01 01:42:53;;;;;;;0.00;0.00;;;13.40;99.90;;;;;;5032823;28;20029;-74
2021/09/01 01:45:20;;;;;;;0.00;0.00;;;13.50;99.90;;;;;;5015012;28;20028;-75
2021/09/01 01:47:46;;;;;;;0.10;0.10;;;13.60;99.90;;;;;;5032445;28;20030;-74
2021/09/01 01:50:12;;;;;;;0.17;0.17;;;13.80;99.90;;;;;;5032591;28;20067;-73
2021/09/01 01:52:38;;;;;;;0.00;0.00;;;13.90;99.90;;;;;;5031298;28;20022;-73
2021/09/01 01:55:05;;;;;;;0.08;0.08;;;13.80;99.90;;;;;;5080552;22;20099;-93
2021/09/01 01:57:31;;;;;;;0.00;0.00;;;13.80;99.90;;;;;;5019641;28;20017;-93
2021/09/01 01:59:57;;;;;;;0.00;0.00;;;13.80;99.90;;;;;;5020191;28;20021;-93
2021/09/01 02:02:28;;;;;;;0.08;0.08;;;13.60;99.90;;;;;;5021068;28;20071;-94
2021/09/01 02:04:54;;;;;;;0.05;0.05;;;13.70;99.90;;;;;;5019782;28;20112;-93
2021/09/01 02:07:20;;;;;;;0.00;0.00;;;13.90;99.90;;;;;;5043670;28;20039;-93
2021/09/01 02:09:46;;;;;;;0.10;0.10;;;13.80;99.90;;;;;;5043677;28;20047;-93
2021/09/01 02:12:12;;;;;;;0.00;0.00;;;13.70;99.90;;;;;;5044098;28;20029;-93
2021/09/01 02:14:40;;;;;;;0.00;0.00;;;13.70;99.90;;;;;;5043915;28;20037;-93
2021/09/01 02:17:05;;;;;;;0.10;0.10;;;13.50;99.90;;;;;;5044136;28;20013;-92
2021/09/01 02:19:31;;;;;;;0.10;0.10;;;13.50;99.90;;;;;;5043835;28;20086;-92
2021/09/01 02:21:57;;;;;;;0.00;0.00;;;13.40;99.90;;;;;;5043984;28;20017;-94
2021/09/01 02:24:23;;;;;;;0.10;0.10;;;13.30;99.90;;;;;;5042599;28;20013;-93
2021/09/01 02:26:49;;;;;;;0.00;0.00;;;13.20;99.90;;;;;;5021553;28;20103;-93
2021/09/01 02:29:15;;;;;;;0.00;0.00;;;13.30;99.90;;;;;;5021227;28;20056;-93
2021/09/01 02:31:40;;;;;;;0.00;0.00;;;13.30;99.90;;;;;;5020008;28;20055;-93
2021/09/01 02:34:06;;;;;;;0.00;0.00;;;13.30;99.90;;;;;;5020113;28;20025;-93
2021/09/01 02:36:32;;;;;;;1.45;0.98;;;13.40;99.90;;;;;;5020400;28;20036;-92
2021/09/01 02:38:58;;;;;;;0.03;0.03;;;13.40;99.90;;;;;;5020565;28;20041;-93
2021/09/01 02:41:24;;;;;;;0.10;0.10;;;13.40;99.90;;;;;;5021087;28;20098;-93
2021/09/01 02:43:51;;;;;;;0.38;0.38;;;13.30;99.90;;;;;;5021773;28;20028;-92
2021/09/01 02:46:17;;;;;;;0.17;0.17;;;13.00;99.90;;;;;;5021936;28;20025;-93
2021/09/01 02:48:44;;;;;;;0.17;0.17;;;13.00;99.90;;;;;;5020536;28;20029;-93
2021/09/01 02:51:09;;;;;;;0.03;0.03;;;12.90;99.90;;;;;;5020365;28;20032;-93
2021/09/01 02:53:35;;;;;;;0.00;0.00;;;12.80;99.90;;;;;;5020247;28;20021;-93
2021/09/01 02:56:01;;;;;;;0.10;0.10;;;12.90;99.90;;;;;;5020385;28;20501;-93
2021/09/01 02:58:27;;;;;;;0.10;0.10;;;12.90;99.90;;;;;;5020109;28;20438;-93
2021/09/01 03:00:53;;;;;;;0.08;0.08;;;13.00;99.90;;;;;;5019970;28;20048;-93
2021/09/01 03:03:19;;;;;;;0.08;0.08;;;12.90;99.90;;;;;;5019792;28;20079;-92
2021/09/01 03:05:44;;;;;;;0.20;0.20;;;13.00;99.90;;;;;;5020639;28;20035;-92
2021/09/01 03:08:10;;;;;;;0.20;0.20;;;12.90;99.90;;;;;;5020499;28;20083;-93
2021/09/01 03:10:36;;;;;;;0.90;0.50;;;12.80;99.90;;;;;;5020515;28;20025;-92
2021/09/01 03:13:02;;;;;;;0.10;0.10;;;12.60;99.90;;;;;;5020953;28;20017;-93
2021/09/01 03:15:28;;;;;;;0.10;0.10;;;12.40;99.90;;;;;;5019837;28;20021;-93
2021/09/01 03:17:54;;;;;;;0.00;0.00;;;12.30;99.90;;;;;;5023790;28;20029;-93
2021/09/01 03:20:19;;;;;;;0.10;0.10;;;12.40;99.90;;;;;;5024084;28;20049;-92
2021/09/01 03:22:45;;;;;;;0.10;0.10;;;12.50;99.90;;;;;;5023979;28;20078;-93
2021/09/01 03:25:11;;;;;;;0.20;0.20;;;12.50;99.90;;;;;;5023939;28;20028;-93
2021/09/01 03:27:37;;;;;;;0.10;0.10;;;12.40;99.90;;;;;;5024142;28;20113;-92
2021/09/01 03:30:03;;;;;;;0.10;0.10;;;12.30;99.90;;;;;;5024136;28;20032;-93
2021/09/01 03:32:29;;;;;;;0.10;0.10;;;12.20;99.90;;;;;;5024192;28;20060;-92
2021/09/01 03:34:55;;;;;;;0.30;0.30;;;12.10;99.90;;;;;;5023575;28;20028;-93
2021/09/01 03:37:21;;;;;;;0.45;0.45;;;12.10;99.90;;;;;;5024028;28;20510;-93
2021/09/01 03:39:47;;;;;;;0.10;0.10;;;12.20;99.90;;;;;;5023575;28;20021;-92
2021/09/01 03:42:13;;;;;;;0.55;0.20;;;12.10;99.90;;;;;;5023522;28;20029;-92
2021/09/01 03:44:38;;;;;;;0.85;0.85;;;12.10;99.90;;;;;;5023745;28;20103;-92
2021/09/01 03:47:04;;;;;;;0.17;0.17;;;12.10;99.90;;;;;;5024997;28;20492;-92
2021/09/01 03:49:30;;;;;;;0.10;0.10;;;12.00;99.90;;;;;;5023818;28;20434;-93
2021/09/01 03:51:55;;;;;;;0.10;0.10;;;12.10;99.90;;;;;;5023644;28;20022;-93
2021/09/01 03:54:21;;;;;;;0.00;0.00;;;12.30;99.90;;;;;;5023726;28;20017;-93
2021/09/01 03:56:47;;;;;;;0.03;0.03;;;12.40;99.90;;;;;;5022990;28;20041;-93
2021/09/01 03:59:12;;;;;;;0.10;0.10;;;12.40;99.90;;;;;;5023021;28;20052;-93
2021/09/01 04:01:38;;;;;;;0.10;0.10;;;12.40;99.90;;;;;;5022924;28;20060;-92
2021/09/01 04:04:06;;;;;;;0.10;0.10;;;12.40;99.90;;;;;;5023497;28;20187;-93
2021/09/01 04:06:32;;;;;;;0.10;0.10;;;12.60;99.90;;;;;;5022257;28;20047;-93
2021/09/01 04:08:58;;;;;;;0.00;0.00;;;12.60;99.90;;;;;;5022812;28;20478;-93
2021/09/01 04:11:23;;;;;;;0.10;0.10;;;12.60;99.90;;;;;;5022573;28;20029;-93
2021/09/01 04:13:50;;;;;;;0.08;0.08;;;12.50;99.90;;;;;;5022850;28;20040;-92
2021/09/01 04:16:15;;;;;;;0.00;0.00;;;12.50;99.90;;;;;;5023068;28;20374;-93
2021/09/01 04:18:41;;;;;;;0.10;0.10;;;12.40;99.90;;;;;;5023633;28;20032;-92
2021/09/01 04:21:07;;;;;;;0.10;0.10;;;12.30;99.90;;;;;;5023133;28;20029;-93
2021/09/01 04:23:33;;;;;;;0.10;0.10;;;12.30;99.90;;;;;;5022734;28;20547;-92
2021/09/01 04:25:59;;;;;;;0.10;0.10;;;12.40;99.90;;;;;;5022688;28;20104;-92
2021/09/01 04:28:24;;;;;;;0.20;0.20;;;12.40;99.90;;;;;;5021434;28;20032;-92
2021/09/01 04:30:50;;;;;;;0.10;0.10;;;12.30;99.90;;;;;;5022614;28;20025;-92
2021/09/01 04:33:16;;;;;;;0.00;0.00;;;12.40;99.90;;;;;;5022346;28;20032;-92
2021/09/01 04:35:42;;;;;;;0.10;0.10;;;12.30;99.90;;;;;;5022684;28;20037;-93
2021/09/01 04:38:08;;;;;;;0.10;0.10;;;12.30;99.90;;;;;;5022345;28;20024;-93
2021/09/01 04:40:34;;;;;;;0.10;0.10;;;12.40;99.90;;;;;;5021978;28;20444;-93
2021/09/01 04:42:59;;;;;;;0.08;0.08;;;12.40;99.90;;;;;;5022278;28;20021;-92
2021/09/01 04:45:25;;;;;;;0.17;0.17;;;12.30;99.90;;;;;;5023191;28;20029;-92
2021/09/01 04:47:51;;;;;;;0.95;0.95;;;12.30;99.90;;;;;;5021730;28;20120;-93
2021/09/01 04:50:17;;;;;;;0.10;0.10;;;12.40;99.90;;;;;;5022610;28;20075;-92
2021/09/01 04:52:43;;;;;;;0.00;0.00;;;12.40;99.90;;;;;;5022401;28;20485;-92
2021/09/01 04:55:09;;;;;;;0.10;0.10;;;12.40;99.90;;;;;;5021527;28;20028;-93
2021/09/01 04:57:35;;;;;;;2.25;0.90;;;12.40;99.90;;;;;;5022143;28;20375;-92
2021/09/01 05:00:02;;;;;;;1.98;0.30;;;12.30;99.90;;;;;;5022207;28;20029;-93
2021/09/01 05:02:28;;;;;;;0.10;0.10;;;12.10;99.90;;;;;;5022648;28;20032;-92
2021/09/01 05:04:54;;;;;;;0.10;0.10;;;12.00;99.90;;;;;;5021867;28;20025;-92
2021/09/01 05:07:19;;;;;;;0.10;0.10;;;11.90;99.90;;;;;;5022188;28;20052;-93
2021/09/01 05:09:45;;;;;;;0.20;0.20;;;11.90;99.90;;;;;;5021865;28;20025;-93
2021/09/01 05:12:11;;;;;;;0.10;0.10;;;12.00;99.90;;;;;;5028303;28;20478;-93
2021/09/01 05:14:37;;;;;;;0.50;0.50;;;12.00;99.90;;;;;;5022681;28;20281;-93
2021/09/01 05:17:03;;;;;;;0.10;0.10;;;12.00;99.90;;;;;;5026376;28;20009;-92
2021/09/01 05:19:28;;;;;;;0.10;0.10;;;12.10;99.90;;;;;;5043138;28;20013;-93
2021/09/01 05:21:56;;;;;;;0.10;0.10;;;12.10;99.90;;;;;;5043781;28;20021;-93
2021/09/01 05:24:51;;;;;;;0.10;0.10;;;12.10;99.90;;;;;;5028976;28;20040;-93
2021/09/01 05:27:23;;;;;;;0.10;0.10;;;12.10;99.90;;;;;;5035386;28;20028;-94
2021/09/01 05:29:50;;;;;;;0.10;0.10;;;12.10;99.90;;;;;;5034756;28;20029;-94
2021/09/01 05:32:22;;;;;;;10.63;0.40;;;12.10;99.90;;;;;;5026217;28;20029;-93
2021/09/01 05:34:49;;;;;;;0.22;0.22;;;12.20;99.90;;;;;;5021756;28;20501;-94
2021/09/01 05:37:15;;;;;;;0.52;0.52;;;12.20;99.90;;;;;;5021925;28;20040;-92
2021/09/01 05:39:45;;;;;;;0.10;0.10;;;12.20;99.90;;;;;;5025572;28;20020;-93
2021/09/01 05:42:15;;;;;;;0.10;0.10;;;12.40;99.90;;;;;;5025540;28;20029;-93
2021/09/01 05:44:41;;;;;;;0.10;0.10;;;12.50;99.90;;;;;;5023458;28;20025;-93
2021/09/01 05:47:08;;;;;;;0.20;0.20;;;12.60;99.90;;;;;;5026929;28;20529;-92
2021/09/01 05:49:35;;;;;;;0.10;0.10;;;12.50;99.90;;;;;;5039442;28;20114;-92
2021/09/01 05:52:05;;;;;;;0.10;0.10;;;12.50;99.90;;;;;;5039996;28;20055;-93
2021/09/01 05:54:32;;;;;;;0.10;0.10;;;12.60;99.90;;;;;;5039096;28;20021;-93
2021/09/01 05:57:10;;;;;;;0.10;0.10;;;12.70;99.90;;;;;;5031039;28;20025;-92
2021/09/01 05:59:50;;;;;;;0.10;0.10;;;12.60;99.90;;;;;;5037289;28;20021;-93
2021/09/01 06:02:37;;;;;;;0.10;0.10;;;12.70;99.90;;;;;;5037633;28;20103;-93
2021/09/01 06:05:05;;;;;;;0.10;0.10;;;12.80;99.90;;;;;;5030309;28;20032;-93
2021/09/01 06:08:07;;;;;;;0.20;0.20;;;13.00;99.90;;;;;;5021454;28;20021;-93
2021/09/01 06:10:35;;;;;;;0.10;0.10;;;13.10;99.90;;;;;;4940884;28;20027;-91
2021/09/01 06:13:10;;;;;;;0.10;0.10;;;13.10;99.90;;;;;;5021070;28;20029;-92
2021/09/01 06:15:39;;;;;;;0.10;0.10;;;13.20;99.90;;;;;;5021321;28;20028;-92
2021/09/01 06:18:06;;;;;;;0.10;0.10;;;13.30;99.90;;;;;;5024395;28;20051;-92
2021/09/01 06:20:32;;;;;;;0.10;0.10;;;13.30;99.90;;;;;;5024486;28;20020;-92
2021/09/01 06:22:59;;;;;;;0.47;0.47;;;13.40;99.90;;;;;;5037677;28;20032;-91
2021/09/01 06:25:25;;;;;;;0.10;0.10;;;13.40;99.90;;;;;;5033180;28;20040;-92
2021/09/01 06:27:50;;;;;;;0.10;0.10;;;13.30;99.90;;;;;;5035604;28;20355;-91
2021/09/01 06:30:17;;;;;;;0.20;0.20;;;13.40;99.90;;;;;;5033230;28;20028;-91
2021/09/01 06:32:43;;;;;;;0.30;0.30;;;13.30;99.90;;;;;;5028859;28;20027;-91
2021/09/01 06:35:09;;;;;;;0.10;0.10;;;13.40;99.90;;;;;;5017718;28;20021;-91
2021/09/01 06:37:37;;;;;;;0.00;0.00;;;13.30;99.90;;;;;;5018662;28;20506;-91
2021/09/01 06:40:03;;;;;;;0.10;0.10;;;13.40;99.90;;;;;;5017707;28;20025;-91
2021/09/01 06:42:29;;;;;;;0.10;0.10;;;13.50;99.90;;;;;;5017961;28;20104;-91
2021/09/01 06:44:55;;;;;;;0.10;0.10;;;13.40;99.90;;;;;;5020426;28;20116;-91
2021/09/01 06:47:21;;;;;;;0.10;0.10;;;13.60;99.90;;;;;;5034572;28;20024;-92
2021/09/01 06:49:46;;;;;;;0.10;0.10;;;13.70;99.90;;;;;;5034107;28;20117;-91
2021/09/01 06:52:12;;;;;;;0.00;0.00;;;13.90;99.90;;;;;;5026834;28;20025;-92
2021/09/01 06:54:38;;;;;;;0.10;0.10;;;13.90;99.90;;;;;;5030972;28;20047;-90
2021/09/01 06:57:04;;;;;;;0.10;0.10;;;14.00;99.90;;;;;;5032743;28;20032;-92
2021/09/01 06:59:30;;;;;;;0.10;0.10;;;14.10;99.90;;;;;;5036663;28;20028;-91
2021/09/01 07:01:56;;;;;;;0.13;0.13;;;14.10;99.90;;;;;;5023081;28;20036;-91
2021/09/01 07:04:22;;;;;;;0.00;0.00;;;14.30;99.90;;;;;;5028677;28;20029;-92
2021/09/01 07:06:48;;;;;;;0.10;0.10;;;14.30;99.90;;;;;;5028610;28;20025;-91
2021/09/01 07:09:13;;;;;;;0.95;0.47;;;14.40;99.90;;;;;;5023383;28;20306;-93
2021/09/01 07:11:39;;;;;;;0.03;0.03;;;14.40;99.90;;;;;;5027324;28;20021;-91
2021/09/01 07:14:06;;;;;;;0.10;0.10;;;14.40;99.90;;;;;;5026346;28;20387;-91
2021/09/01 07:16:32;;;;;;;0.20;0.20;;;14.50;99.90;;;;;;5032478;28;20390;-92
2021/09/01 07:18:58;;;;;;;0.10;0.10;;;14.50;99.90;;;;;;5032977;28;20035;-92
2021/09/01 07:21:24;;;;;;;0.20;0.20;;;14.60;99.90;;;;;;5035538;28;20096;-92
2021/09/01 07:23:50;;;;;;;0.00;0.00;;;14.70;99.90;;;;;;5025599;28;20079;-92
2021/09/01 07:26:15;;;;;;;0.10;0.10;;;14.90;99.90;;;;;;5026814;28;20079;-91
2021/09/01 07:28:41;;;;;;;0.10;0.10;;;15.00;99.90;;;;;;5030379;28;20029;-92
2021/09/01 07:31:09;;;;;;;0.10;0.10;;;15.10;99.90;;;;;;5019649;28;20021;-92
2021/09/01 07:33:36;;;;;;;0.10;0.10;;;15.20;99.90;;;;;;5036668;28;20482;-92
2021/09/01 07:36:02;;;;;;;0.10;0.10;;;15.40;99.90;;;;;;5023003;28;20032;-92
2021/09/01 07:38:28;;;;;;;0.10;0.10;;;15.30;99.90;;;;;;5025224;28;20029;-91
2021/09/01 07:40:54;;;;;;;0.10;0.10;;;15.30;99.90;;;;;;5030350;28;20035;-91
2021/09/01 07:43:20;;;;;;;0.10;0.10;;;15.20;99.90;;;;;;5025388;28;20020;-92
2021/09/01 07:45:46;;;;;;;0.10;0.10;;;15.30;99.90;;;;;;5020741;28;20539;-91
2021/09/01 07:48:14;;;;;;;0.40;0.40;;;15.30;99.90;;;;;;5024145;28;20044;-91
2021/09/01 07:50:41;;;;;;;0.20;0.20;;;15.40;99.90;;;;;;5036388;28;20017;-91
2021/09/01 07:53:07;;;;;;;0.10;0.10;;;15.60;99.90;;;;;;5026537;28;20489;-92
2021/09/01 07:55:33;;;;;;;0.10;0.10;;;15.80;99.90;;;;;;5034713;28;20033;-92
2021/09/01 07:57:59;;;;;;;2.80;0.25;;;16.00;99.90;;;;;;5028623;28;20021;-94
2021/09/01 08:00:24;;;;;;;0.25;0.25;;;16.10;99.90;;;;;;5029053;28;20489;-92
2021/09/01 08:02:52;;;;;;;0.38;0.38;;;16.20;99.90;;;;;;5028384;28;20025;-93
2021/09/01 08:05:19;;;;;;;0.10;0.10;;;16.30;99.90;;;;;;5021640;28;20033;-92
2021/09/01 08:07:46;;;;;;;0.10;0.10;;;16.50;99.90;;;;;;5025733;28;20075;-92
2021/09/01 08:10:12;;;;;;;0.10;0.10;;;16.70;99.90;;;;;;5031909;28;20086;-91
2021/09/01 08:12:39;;;;;;;0.52;0.52;;;16.80;99.90;;;;;;5035035;28;20386;-92
2021/09/01 08:15:10;;;;;;;2.28;2.17;;;17.10;99.90;;;;;;5024519;28;20509;-93
2021/09/01 08:17:36;;;;;;;0.93;0.88;;;17.40;99.90;;;;;;5026085;28;20120;-92
2021/09/01 08:20:03;;;;;;;0.10;0.10;;;17.50;99.90;;;;;;5025589;28;20056;-92
2021/09/01 08:22:28;;;;;;;0.10;0.10;;;17.50;99.90;;;;;;5031527;28;20150;-91
2021/09/01 08:24:54;;;;;;;0.20;0.20;;;17.80;99.90;;;;;;5027042;28;20029;-92
2021/09/01 08:27:20;;;;;;;1.25;0.65;;;18.10;99.90;;;;;;5024390;28;20123;-92
2021/09/01 08:29:46;;;;;;;0.20;0.20;;;18.20;99.90;;;;;;5031772;28;20072;-92
2021/09/01 08:32:11;;;;;;;0.10;0.10;;;18.20;99.90;;;;;;5019701;28;20028;-91
2021/09/01 08:34:37;;;;;;;0.10;0.10;;;18.40;99.90;;;;;;5034926;28;20021;-92
2021/09/01 08:37:04;;;;;;;3.83;0.55;;;18.60;98.30;;;;;;5031319;28;20505;-91
2021/09/01 08:39:31;;;;;;;0.10;0.10;;;18.50;95.90;;;;;;5023221;28;20525;-92
2021/09/01 08:41:57;;;;;;;0.10;0.10;;;18.60;98.10;;;;;;5026118;28;20032;-92
2021/09/01 08:44:23;;;;;;;0.10;0.10;;;18.70;96.20;;;;;;5026673;28;20025;-91
2021/09/01 08:46:50;;;;;;;1.13;1.13;;;18.80;93.30;;;;;;5023411;28;20379;-92
2021/09/01 08:49:18;;;;;;;0.10;0.10;;;18.60;94.50;;;;;;5025342;28;20060;-92
2021/09/01 08:51:50;;;;;;;0.10;0.10;;;18.50;94.10;;;;;;5026925;28;20025;-92
2021/09/01 08:54:16;;;;;;;0.45;0.45;;;18.80;92.80;;;;;;5024270;28;20109;-91
2021/09/01 08:56:43;;;;;;;0.10;0.10;;;19.10;94.90;;;;;;5027699;28;20039;-94
2021/09/01 08:59:09;;;;;;;0.13;0.13;;;19.40;92.50;;;;;;5025587;28;20060;-92
2021/09/01 09:01:50;;;;;;;0.93;0.88;;;19.80;92.40;;;;;;5025993;28;20056;-92
2021/09/01 09:04:23;;;;;;;0.63;0.50;;;20.00;91.20;;;;;;5021906;28;20025;-93
2021/09/01 09:06:57;;;;;;;0.00;0.00;;;19.90;91.00;;;;;;5028215;28;20029;-92
2021/09/01 09:09:32;;;;;;;0.10;0.10;;;20.00;90.60;;;;;;5023949;28;20616;-93
2021/09/01 09:12:00;;;;;;;10.63;0.43;;;20.20;87.10;;;;;;5028832;28;20025;-93
2021/09/01 09:14:28;;;;;;;0.10;0.10;;;20.40;86.80;;;;;;5027793;28;20028;-93
2021/09/01 09:17:13;;;;;;;0.10;0.10;;;20.70;86.70;;;;;;5028274;28;20071;-94
2021/09/01 09:20:02;;;;;;;0.77;0.77;;;21.00;81.90;;;;;;5025067;28;20029;-92
2021/09/01 09:22:37;;;;;;;0.52;0.52;;;21.30;81.00;;;;;;5024231;28;20025;-92
2021/09/01 09:25:27;;;;;;;0.10;0.10;;;21.40;81.10;;;;;;5024342;28;20031;-92
2021/09/01 09:28:02;;;;;;;1.48;0.98;;;21.50;78.70;;;;;;5005466;28;20040;-93
2021/09/01 09:30:37;;;;;;;0.10;0.10;;;21.60;78.40;;;;;;5028185;28;20021;-90
2021/09/01 09:33:15;;;;;;;0.10;0.10;;;21.80;72.60;;;;;;5025971;28;20025;-91
2021/09/01 09:36:03;;;;;;;0.32;0.32;;;21.40;74.90;;;;;;5021168;28;20021;-90
2021/09/01 09:38:32;;;;;;;0.43;0.43;;;20.90;76.30;;;;;;5019187;28;20055;-93
2021/09/01 09:40:59;;;;;;;0.10;0.10;;;20.40;76.40;;;;;;5035861;28;20111;-93
2021/09/01 09:43:28;;;;;;;0.17;0.17;;;20.10;77.70;;;;;;5023263;28;20025;-92
2021/09/01 09:46:10;;;;;;;5.82;0.90;;;19.70;77.40;;;;;;5042469;28;20040;-93
2021/09/01 09:48:42;;;;;;;0.10;0.10;;;19.40;78.70;;;;;;5034883;28;20462;-92
2021/09/01 09:51:45;;;;;;;;;;;;;;;;;;;;;
2021/09/01 09:54:17;;;;;;;0.03;0.03;;;19.60;74.00;;;;;;5049611;28;20393;-93
2021/09/01 09:56:44;;;;;;;0.20;0.20;;;20.00;75.10;;;;;;5029013;28;20029;-92
2021/09/01 09:59:18;;;;;;;0.10;0.10;;;20.30;76.20;;;;;;5027870;28;20040;-93
2021/09/01 10:01:45;;;;;;;0.40;0.32;;;21.10;71.80;;;;;;5021693;28;20029;-93
2021/09/01 10:04:11;;;;;;;0.30;0.30;;;21.50;67.00;;;;;;5018499;28;20029;-94
2021/09/01 10:06:37;;;;;;;0.05;0.05;;;21.00;69.20;;;;;;5030439;28;20029;-94
2021/09/01 10:09:04;;;;;;;1.55;0.85;;;20.60;68.00;;;;;;5029137;28;20029;-93
2021/09/01 10:11:32;;;;;;;9.18;1.00;;;20.20;71.10;;;;;;5027027;28;20021;-93
2021/09/01 10:13:58;;;;;;;0.20;0.20;;;20.80;69.30;;;;;;5030286;28;20033;-93
2021/09/01 10:16:47;;;;;;;0.10;0.10;;;21.30;67.20;;;;;;5026687;28;20032;-93
2021/09/01 10:19:16;;;;;;;0.10;0.10;;;21.70;66.90;;;;;;5029223;28;20406;-92
2021/09/01 10:25:52;;;;;;;0.00;0.00;;;22.30;64.30;;;;;;4961288;28;20035;-95
2021/09/01 10:28:32;;;;;;;0.32;0.28;;;23.20;62.30;;;;;;5026184;28;20072;-93
2021/09/01 10:31:12;;;;;;;0.10;0.10;;;22.70;63.10;;;;;;5038589;28;20021;-94
2021/09/01 10:33:47;;;;;;;0.10;0.10;;;22.10;64.50;;;;;;5033303;28;20128;-91
2021/09/01 10:36:25;;;;;;;0.22;0.22;;;21.60;64.60;;;;;;5027366;28;20449;-90
2021/09/01 10:39:15;;;;;;;0.20;0.20;;;21.40;65.10;;;;;;5021493;28;20029;-91
2021/09/01 10:41:41;;;;;;;0.32;0.32;;;21.90;65.30;;;;;;5021736;28;20029;-92
2021/09/01 10:44:13;;;;;;;0.10;0.10;;;22.60;63.00;;;;;;5029835;28;20033;-96
2021/09/01 10:46:53;;;;;;;0.20;0.20;;;23.20;61.10;;;;;;5025002;28;20413;-93
2021/09/01 10:49:26;;;;;;;14.60;8.50;;;23.60;59.70;;;;;;5024775;28;20029;-92
2021/09/01 10:51:58;;;;;;;0.03;0.03;;;23.60;60.80;;;;;;5031721;28;20021;-92
2021/09/01 10:54:31;;;;;;;4.55;1.05;;;23.50;58.30;;;;;;5024198;28;20522;-93
2021/09/01 10:56:59;;;;;;;0.28;0.28;;;22.70;60.20;;;;;;5023403;28;20449;-92
2021/09/01 10:59:31;;;;;;;0.10;0.10;;;21.70;64.90;;;;;;5028016;28;20028;-91
2021/09/01 11:02:25;;;;;;;0.10;0.10;;;21.30;65.70;;;;;;5026025;28;20025;-91
2021/09/01 11:04:58;;;;;;;0.10;0.10;;;21.00;66.80;;;;;;5025074;28;20033;-90
2021/09/01 11:07:31;;;;;;;0.32;0.32;;;21.30;64.10;;;;;;5020204;28;20036;-92
2021/09/01 11:10:03;;;;;;;0.20;0.20;;;21.90;61.20;;;;;;5023919;28;20388;-92
2021/09/01 11:12:31;;;;;;;0.10;0.10;;;22.50;60.50;;;;;;5024865;28;20031;-91
2021/09/01 11:14:57;;;;;;;0.10;0.10;;;23.20;59.60;;;;;;5020054;28;20017;-91
2021/09/01 11:17:28;;;;;;;0.20;0.20;;;24.00;57.30;;;;;;5029540;28;20021;-92
2021/09/01 11:19:58;;;;;;;1.37;0.23;;;24.10;56.60;;;;;;5031190;28;20028;-92
2021/09/01 11:22:26;;;;;;;0.00;0.00;;;24.20;54.40;;;;;;5031881;28;20017;-92
2021/09/01 11:24:58;;;;;;;0.10;0.10;;;24.30;56.20;;;;;;5027436;28;20518;-92
2021/09/01 11:27:31;;;;;;;0.00;0.00;;;24.70;55.90;;;;;;5032540;28;20032;-92
2021/09/01 11:30:03;;;;;;;1.02;0.82;;;24.60;56.10;;;;;;5029258;28;20025;-92
2021/09/01 11:32:31;;;;;;;21.88;0.85;;;24.70;56.50;;;;;;5028911;28;20028;-92
2021/09/01 11:35:08;;;;;;;0.22;0.22;;;24.90;55.30;;;;;;5032100;28;20044;-92
2021/09/01 11:37:34;;;;;;;0.00;0.00;;;24.60;56.50;;;;;;5037237;28;20021;-89
2021/09/01 11:40:06;;;;;;;0.30;0.30;;;24.70;55.60;;;;;;5044748;28;20148;-92
2021/09/01 11:42:34;;;;;;;;;;;25.00;54.90;;;;;;5033377;28;20033;-93
2021/09/01 11:45:01;;;;;;;0.10;0.10;;;25.20;55.30;;;;;;5032121;28;19904;-92
2021/09/01 11:47:27;;;;;;;0.00;0.00;;;24.90;56.00;;;;;;5033297;28;20486;-92
2021/09/01 11:49:54;;;;;;;0.00;0.00;;;24.90;54.00;;;;;;5033404;28;20029;-93
2021/09/01 11:52:36;;;;;;;0.17;0.17;;;24.90;56.20;;;;;;5036355;28;20025;-92
2021/09/01 11:55:03;;;;;;;0.00;0.00;;;25.10;54.30;;;;;;5029305;28;20028;-92
2021/09/01 11:57:32;;;;;;;0.10;0.10;;;25.50;53.20;;;;;;5028417;28;20074;-92
2021/09/01 12:00:00;;;;;;;2.08;0.40;;;25.30;52.70;;;;;;5036412;28;20557;-92
2021/09/01 12:02:32;;;;;;;5.65;0.77;;;25.10;53.10;;;;;;5041318;28;20056;-93
2021/09/01 12:04:58;;;;;;;1.00;0.90;;;25.20;51.60;;;;;;5062086;28;20017;-93
2021/09/01 12:07:29;;;;;;;0.10;0.10;;;24.90;52.40;;;;;;5055783;28;20014;-93
2021/09/01 12:10:01;;;;;;;0.45;0.40;;;24.70;53.10;;;;;;5057127;28;20033;-93
2021/09/01 12:12:38;;;;;;;1.67;1.23;;;24.20;56.10;;;;;;5052596;28;20017;-93
2021/09/01 12:15:16;;;;;;;0.00;0.00;;;23.90;54.70;;;;;;5050442;28;20017;-93
2021/09/01 12:18:07;;;;;;;0.13;0.13;;;24.00;54.40;;;;;;5045337;28;20024;-92
2021/09/01 12:20:34;;;;;;;0.45;0.45;;;23.90;55.00;;;;;;5016601;28;20779;-92
2021/09/01 12:23:12;;;;;;;0.60;0.60;;;23.90;56.00;;;;;;5029037;28;20029;-92
2021/09/01 12:25:39;;;;;;;0.80;0.30;;;24.00;56.60;;;;;;5026672;28;20028;-92
2021/09/01 12:28:10;;;;;;;0.05;0.05;;;23.90;55.60;;;;;;5026238;28;20071;-92
2021/09/01 12:30:42;;;;;;;0.28;0.28;;;23.90;56.60;;;;;;5031308;28;20025;-92
2021/09/01 12:33:16;;;;;;;0.00;0.00;;;23.90;57.00;;;;;;5032819;28;20482;-92
2021/09/01 12:35:42;;;;;;;0.22;0.22;;;23.40;57.50;;;;;;5035090;28;20032;-92
2021/09/01 12:38:22;;;;;;;0.10;0.10;;;23.00;56.80;;;;;;5032719;28;20494;-92
2021/09/01 12:40:48;;;;;;;0.00;0.00;;;22.30;58.30;;;;;;5021909;28;20025;-92
2021/09/01 12:43:14;;;;;;;0.63;0.63;;;22.00;59.60;;;;;;5033911;28;20079;-92
2021/09/01 12:49:23;;;;;;;2.47;0.82;;;22.40;58.70;;;;;;5044811;28;20036;-93
2021/09/01 12:51:51;;;;;;;0.03;0.03;;;22.60;56.80;;;;;;5021502;28;20025;-93
2021/09/01 12:54:22;;;;;;;1.05;0.95;;;22.50;56.10;;;;;;5038532;28;20021;-93
2021/09/01 12:56:51;;;;;;;0.10;0.10;;;22.30;56.80;;;;;;5026993;28;20041;-93
2021/09/01 12:59:17;;;;;;;0.35;0.35;;;22.20;57.70;;;;;;5027513;28;20032;-93
2021/09/01 13:01:43;;;;;;;1.25;0.80;;;22.00;57.00;;;;;;5031591;28;20120;-92
2021/09/01 13:04:09;;;;;;;1.00;0.32;;;21.90;56.70;;;;;;5021022;28;20036;-93
2021/09/01 13:06:35;;;;;;;4.50;2.03;;;21.90;56.60;;;;;;5029312;28;20033;-93